Time;durP1;ratioP1;P1;durP2;ratioP2;P2;SDS_P1;SDS_P2;PMS_P1;PMS_P2;Temp;Humidity;BMP_temperature;BMP_pressure;BME280_temperature;BME280_humidity;BME280_pressure;Samples;Min_cycle;Max_cycle;Signal;HPM_P1;HPM_P2
2021/04/24 00:01:24;;;;;;;7.50;3.53;;;4.90;72.60;;;;;;5052343;28;20025;-50
2021/04/24 00:03:50;;;;;;;6.07;3.38;;;4.80;72.70;;;;;;5051339;28;20028;-48
2021/04/24 00:06:15;;;;;;;5.45;2.88;;;4.80;73.20;;;;;;5052283;28;20029;-49
2021/04/24 00:08:41;;;;;;;5.32;2.72;;;4.70;73.20;;;;;;5052149;28;20492;-50
2021/04/24 00:11:07;;;;;;;6.47;3.20;;;4.70;73.60;;;;;;5056161;28;20044;-51
2021/04/24 00:13:33;;;;;;;4.40;2.67;;;4.60;73.30;;;;;;5056066;28;20071;-50
2021/04/24 00:15:59;;;;;;;8.60;3.45;;;4.60;73.60;;;;;;5054902;28;20021;-49
2021/04/24 00:18:24;;;;;;;3.92;2.80;;;4.60;73.80;;;;;;5056078;28;20031;-48
2021/04/24 00:20:50;;;;;;;8.45;2.75;;;4.50;74.10;;;;;;5051629;28;20519;-49
2021/04/24 00:23:16;;;;;;;5.88;3.05;;;4.40;74.20;;;;;;5052227;28;20384;-51
2021/04/24 00:25:42;;;;;;;4.50;2.70;;;4.40;74.20;;;;;;5056025;28;20033;-49
2021/04/24 00:28:10;;;;;;;5.60;2.40;;;4.30;74.30;;;;;;5055810;28;20025;-49
2021/04/24 00:30:39;;;;;;;5.50;3.03;;;4.20;74.50;;;;;;5055835;28;20100;-52
2021/04/24 00:33:06;;;;;;;3.97;2.53;;;4.20;74.80;;;;;;5055839;28;20354;-48
2021/04/24 00:35:32;;;;;;;5.40;2.10;;;4.20;75.10;;;;;;5054903;28;20029;-51
2021/04/24 00:37:57;;;;;;;5.13;2.90;;;4.10;75.40;;;;;;5055393;28;20468;-51
2021/04/24 00:40:23;;;;;;;7.00;3.30;;;4.10;75.30;;;;;;5055796;28;20037;-51
2021/04/24 00:42:49;;;;;;;5.75;2.65;;;4.10;75.50;;;;;;5055672;28;20062;-49
2021/04/24 00:45:18;;;;;;;4.30;2.38;;;4.10;75.50;;;;;;5055759;28;20495;-50
2021/04/24 00:47:45;;;;;;;4.43;2.30;;;4.00;75.40;;;;;;5055543;28;20490;-50
2021/04/24 00:50:12;;;;;;;6.40;2.70;;;4.00;75.90;;;;;;5054748;28;20029;-48
2021/04/24 00:52:38;;;;;;;6.63;3.75;;;4.00;76.60;;;;;;5055178;28;20440;-50
2021/04/24 00:55:04;;;;;;;7.45;2.65;;;3.90;76.80;;;;;;5055487;28;20036;-51
2021/04/24 00:57:31;;;;;;;5.50;2.70;;;3.80;76.90;;;;;;5055314;28;20025;-51
2021/04/24 00:59:57;;;;;;;4.47;2.42;;;3.80;76.90;;;;;;5055400;28;20465;-52
2021/04/24 01:02:22;;;;;;;4.95;2.53;;;3.80;77.30;;;;;;5055350;28;20031;-47
2021/04/24 01:04:48;;;;;;;9.20;2.88;;;3.70;77.40;;;;;;5052982;28;20028;-49
2021/04/24 01:07:14;;;;;;;4.82;2.65;;;3.70;77.90;;;;;;5055238;28;20067;-50
2021/04/24 01:09:40;;;;;;;5.18;2.80;;;3.70;77.80;;;;;;5055112;28;20029;-52
2021/04/24 01:12:06;;;;;;;4.57;2.63;;;3.70;77.60;;;;;;5055242;28;20074;-48
2021/04/24 01:14:31;;;;;;;8.02;2.88;;;3.70;77.80;;;;;;5054856;28;20029;-49
2021/04/24 01:16:57;;;;;;;7.28;3.20;;;3.70;77.60;;;;;;5055188;28;20021;-48
2021/04/24 01:19:23;;;;;;;5.35;2.85;;;3.80;77.60;;;;;;5053906;28;20025;-52
2021/04/24 01:22:08;;;;;;;4.85;2.40;;;3.80;77.60;;;;;;5054815;28;20054;-47
2021/04/24 01:24:34;;;;;;;4.28;3.33;;;3.80;77.40;;;;;;5054773;28;20036;-51
2021/04/24 01:27:03;;;;;;;4.65;2.47;;;3.80;77.60;;;;;;5054956;28;20040;-49
2021/04/24 01:29:28;;;;;;;4.40;2.20;;;3.80;78.40;;;;;;5054573;28;20071;-51
2021/04/24 01:31:54;;;;;;;6.50;3.13;;;3.80;78.80;;;;;;5054850;28;20045;-48
2021/04/24 01:34:20;;;;;;;5.13;2.90;;;3.90;78.80;;;;;;5053569;28;20025;-49
2021/04/24 01:36:45;;;;;;;6.78;2.90;;;3.80;78.70;;;;;;5054658;28;20025;-51
2021/04/24 01:39:11;;;;;;;4.82;2.97;;;3.80;79.00;;;;;;5054571;28;20599;-50
2021/04/24 01:41:37;;;;;;;4.57;2.55;;;3.80;79.40;;;;;;5054680;28;20415;-50
2021/04/24 01:44:02;;;;;;;3.95;2.28;;;3.70;80.20;;;;;;5054452;28;20061;-49
2021/04/24 01:46:28;;;;;;;4.68;2.53;;;3.70;80.10;;;;;;5054508;28;20384;-51
2021/04/24 01:48:54;;;;;;;4.68;2.17;;;3.70;80.70;;;;;;5053343;28;20033;-49
2021/04/24 01:51:20;;;;;;;5.60;2.88;;;3.60;81.10;;;;;;5054449;28;20396;-49
2021/04/24 01:53:46;;;;;;;9.93;3.28;;;3.60;81.20;;;;;;5054155;28;20104;-48
2021/04/24 01:56:12;;;;;;;8.98;2.42;;;3.60;81.80;;;;;;5054439;28;20412;-48
2021/04/24 01:58:38;;;;;;;7.95;3.08;;;3.50;81.80;;;;;;5054065;28;20021;-48
2021/04/24 02:01:11;;;;;;;8.05;2.80;;;3.40;81.90;;;;;;5054310;28;20655;-49
2021/04/24 02:03:36;;;;;;;9.00;3.60;;;3.40;81.90;;;;;;5053053;28;20029;-50
2021/04/24 02:06:03;;;;;;;15.05;4.65;;;3.40;82.20;;;;;;5054202;28;20071;-48
2021/04/24 02:08:34;;;;;;;10.93;3.85;;;3.30;82.30;;;;;;5054007;28;20028;-49
2021/04/24 02:11:01;;;;;;;11.27;3.88;;;3.30;83.70;;;;;;5054194;28;20452;-50
2021/04/24 02:13:30;;;;;;;10.40;3.90;;;3.30;83.30;;;;;;5053944;28;20025;-52
2021/04/24 02:15:56;;;;;;;8.88;3.28;;;3.30;83.20;;;;;;5053666;28;20112;-49
2021/04/24 02:18:22;;;;;;;7.82;3.45;;;3.30;83.70;;;;;;5054000;28;20035;-48
2021/04/24 02:20:48;;;;;;;7.32;3.15;;;3.30;83.90;;;;;;5051741;28;20025;-49
2021/04/24 02:23:14;;;;;;;10.93;3.70;;;3.30;84.30;;;;;;5053840;28;20487;-50
2021/04/24 02:25:41;;;;;;;5.90;3.08;;;3.30;84.30;;;;;;5053645;28;20032;-51
2021/04/24 02:28:08;;;;;;;6.90;3.10;;;3.30;84.70;;;;;;5053825;28;20032;-52
2021/04/24 02:30:34;;;;;;;7.45;3.17;;;3.30;84.90;;;;;;5053283;28;20036;-49
2021/04/24 02:33:00;;;;;;;5.30;2.97;;;3.20;84.60;;;;;;5053396;28;20056;-49
2021/04/24 02:35:51;;;;;;;8.40;3.30;;;3.20;84.90;;;;;;5052537;28;20029;-48
2021/04/24 02:38:25;;;;;;;6.20;3.50;;;3.10;85.20;;;;;;5053502;28;20057;-46
2021/04/24 02:40:53;;;;;;;6.65;2.50;;;3.10;85.60;;;;;;5053367;28;20053;-49
2021/04/24 02:43:20;;;;;;;7.00;2.88;;;3.00;86.20;;;;;;5053490;28;20100;-48
2021/04/24 02:45:47;;;;;;;7.47;3.08;;;2.90;86.50;;;;;;5053189;28;20028;-48
2021/04/24 02:48:13;;;;;;;5.75;2.50;;;2.80;86.50;;;;;;5053468;28;20044;-50
2021/04/24 02:50:38;;;;;;;5.30;3.25;;;2.80;86.70;;;;;;5052196;28;20112;-52
2021/04/24 02:53:04;;;;;;;6.95;2.92;;;2.70;86.90;;;;;;5053344;28;20083;-51
2021/04/24 02:55:30;;;;;;;5.30;2.65;;;2.70;87.50;;;;;;5053021;28;20021;-51
2021/04/24 02:57:55;;;;;;;6.20;2.90;;;2.70;87.70;;;;;;5053112;28;20090;-50
2021/04/24 03:00:21;;;;;;;8.88;2.15;;;2.70;87.90;;;;;;5053035;28;20104;-48
2021/04/24 03:02:57;;;;;;;4.57;1.90;;;2.70;88.30;;;;;;5053080;28;20029;-49
2021/04/24 03:05:22;;;;;;;5.65;2.20;;;2.70;87.90;;;;;;5052069;28;20112;-48
2021/04/24 03:07:48;;;;;;;4.22;1.95;;;2.80;88.30;;;;;;5052982;28;20120;-50
2021/04/24 03:10:14;;;;;;;3.55;1.88;;;2.80;88.70;;;;;;5052801;28;20107;-54
2021/04/24 03:12:39;;;;;;;4.22;1.98;;;2.80;88.70;;;;;;5052901;28;20037;-50
2021/04/24 03:15:07;;;;;;;7.63;1.83;;;2.90;88.90;;;;;;5052640;28;20437;-49
2021/04/24 03:17:32;;;;;;;5.38;1.83;;;2.90;89.00;;;;;;5052823;28;20108;-49
2021/04/24 03:19:58;;;;;;;10.07;2.25;;;2.90;90.10;;;;;;5045510;28;20100;-48
2021/04/24 03:22:23;;;;;;;7.03;1.77;;;2.90;89.80;;;;;;5052418;28;20033;-51
2021/04/24 03:24:49;;;;;;;6.05;2.13;;;2.90;90.10;;;;;;5051944;28;20029;-48
2021/04/24 03:27:14;;;;;;;7.22;2.05;;;2.90;90.00;;;;;;5050904;28;20388;-50
2021/04/24 03:29:40;;;;;;;4.53;1.85;;;2.80;90.10;;;;;;5056686;28;20048;-50
2021/04/24 03:32:06;;;;;;;5.45;2.05;;;2.80;90.20;;;;;;5050681;28;20112;-48
2021/04/24 03:34:32;;;;;;;4.10;1.70;;;2.70;90.30;;;;;;5048556;28;20453;-49
2021/04/24 03:36:57;;;;;;;6.82;1.88;;;2.70;91.00;;;;;;5053204;28;20068;-49
2021/04/24 03:39:24;;;;;;;5.50;1.92;;;2.60;91.00;;;;;;5050491;28;20621;-55
2021/04/24 03:41:50;;;;;;;5.03;1.83;;;2.50;91.10;;;;;;5050912;28;20028;-50
2021/04/24 03:44:15;;;;;;;6.95;1.85;;;2.50;91.30;;;;;;5049752;28;20060;-50
2021/04/24 03:46:41;;;;;;;5.00;1.75;;;2.40;91.50;;;;;;5050412;28;20448;-49
2021/04/24 03:49:06;;;;;;;9.50;2.30;;;2.30;91.60;;;;;;5049639;28;20037;-49
2021/04/24 03:51:32;;;;;;;6.07;2.20;;;2.20;92.00;;;;;;5049487;28;20116;-49
2021/04/24 03:53:57;;;;;;;5.43;1.83;;;2.20;92.10;;;;;;5055625;28;20037;-53
2021/04/24 03:56:23;;;;;;;6.65;1.60;;;2.10;92.40;;;;;;5050649;28;20473;-48
2021/04/24 03:58:48;;;;;;;6.10;2.70;;;2.10;92.60;;;;;;5050645;28;20083;-49
2021/04/24 04:01:14;;;;;;;10.73;2.67;;;2.10;93.00;;;;;;5050268;28;20037;-51
2021/04/24 04:03:40;;;;;;;5.88;2.17;;;2.00;93.40;;;;;;5049594;28;20017;-50
2021/04/24 04:06:05;;;;;;;11.80;2.28;;;2.00;93.40;;;;;;5050463;28;20396;-49
2021/04/24 04:08:31;;;;;;;7.45;2.15;;;2.00;93.70;;;;;;5050582;28;20029;-53
2021/04/24 04:10:56;;;;;;;7.30;2.40;;;2.00;94.10;;;;;;5050298;28;20052;-52
2021/04/24 04:13:22;;;;;;;6.63;2.05;;;2.00;94.00;;;;;;5050475;28;20040;-48
2021/04/24 04:15:49;;;;;;;7.15;2.38;;;2.10;94.10;;;;;;5050177;28;20037;-48
2021/04/24 04:18:19;;;;;;;6.55;1.90;;;2.10;94.20;;;;;;5050319;28;20109;-52
2021/04/24 04:20:47;;;;;;;5.93;2.08;;;2.20;94.20;;;;;;5049139;28;20013;-47
2021/04/24 04:23:13;;;;;;;6.75;2.30;;;2.30;94.30;;;;;;5050303;28;20036;-49
2021/04/24 04:25:40;;;;;;;3.70;1.85;;;2.30;94.40;;;;;;5050459;28;20076;-49
2021/04/24 04:28:07;;;;;;;5.22;2.00;;;2.40;94.40;;;;;;5058251;28;20032;-50
2021/04/24 04:30:34;;;;;;;4.90;2.28;;;2.50;94.40;;;;;;5050392;28;20025;-49
2021/04/24 04:33:00;;;;;;;4.20;1.75;;;2.60;94.20;;;;;;5050118;28;20031;-50
2021/04/24 04:35:26;;;;;;;7.70;2.25;;;2.70;94.50;;;;;;5049272;28;20025;-49
2021/04/24 04:37:52;;;;;;;6.35;2.47;;;2.90;94.50;;;;;;5050146;28;20028;-49
2021/04/24 04:40:18;;;;;;;6.70;2.40;;;3.00;94.10;;;;;;5050047;28;20095;-49
2021/04/24 04:42:44;;;;;;;5.40;2.42;;;3.20;93.80;;;;;;5050304;28;20480;-50
2021/04/24 04:45:12;;;;;;;6.68;1.88;;;3.30;93.90;;;;;;5050316;28;20033;-48
2021/04/24 04:47:38;;;;;;;3.97;1.50;;;3.40;93.60;;;;;;5049868;28;20037;-49
2021/04/24 04:50:13;;;;;;;5.85;2.63;;;3.40;93.40;;;;;;5049311;28;20033;-49
2021/04/24 04:52:38;;;;;;;6.60;2.85;;;3.50;93.30;;;;;;5049877;28;20056;-50
2021/04/24 04:55:06;;;;;;;7.35;2.42;;;3.80;93.40;;;;;;5050718;28;20067;-51
2021/04/24 04:57:32;;;;;;;4.70;1.80;;;4.00;93.20;;;;;;5053661;28;20084;-51
2021/04/24 04:59:57;;;;;;;6.85;1.98;;;4.10;92.60;;;;;;5053508;28;20099;-50
2021/04/24 05:02:23;;;;;;;8.50;2.72;;;4.30;92.10;;;;;;5053387;28;20082;-49
2021/04/24 05:04:49;;;;;;;9.45;2.08;;;4.60;92.20;;;;;;5048376;28;20029;-50
2021/04/24 05:07:14;;;;;;;8.18;2.40;;;5.50;91.20;;;;;;5052416;28;20067;-50
2021/04/24 05:09:40;;;;;;;4.10;1.92;;;6.40;89.70;;;;;;5052519;28;20033;-48
2021/04/24 05:12:06;;;;;;;5.72;2.03;;;7.20;86.70;;;;;;5053054;28;20025;-50
2021/04/24 05:14:32;;;;;;;7.18;2.28;;;7.90;83.80;;;;;;5053030;28;20748;-51
2021/04/24 05:16:57;;;;;;;8.88;2.53;;;8.70;81.40;;;;;;5052727;28;20032;-51
2021/04/24 05:19:23;;;;;;;5.53;2.10;;;9.40;79.60;;;;;;5044163;28;20084;-48
2021/04/24 05:21:49;;;;;;;6.07;2.85;;;10.00;77.20;;;;;;5052767;28;20025;-49
2021/04/24 05:24:14;;;;;;;7.05;2.58;;;10.70;75.10;;;;;;5053156;28;20032;-50
2021/04/24 05:26:40;;;;;;;3.63;1.85;;;11.50;73.40;;;;;;5052789;28;20024;-48
2021/04/24 05:29:06;;;;;;;7.43;2.38;;;11.80;71.60;;;;;;5061015;28;20041;-49
2021/04/24 05:31:31;;;;;;;7.32;2.60;;;12.40;70.50;;;;;;5052853;28;20029;-49
2021/04/24 05:33:57;;;;;;;3.60;2.08;;;13.10;69.30;;;;;;5051505;28;20033;-50
2021/04/24 05:36:24;;;;;;;3.97;2.30;;;13.30;67.90;;;;;;5052875;28;20420;-49
2021/04/24 05:38:50;;;;;;;5.30;2.50;;;12.80;68.50;;;;;;5052620;28;20091;-52
2021/04/24 05:41:20;;;;;;;5.93;2.00;;;12.60;68.60;;;;;;5052813;28;20037;-53
2021/04/24 05:43:46;;;;;;;4.63;2.22;;;12.80;68.80;;;;;;5052590;28;20021;-48
2021/04/24 05:46:12;;;;;;;7.10;2.97;;;13.50;68.00;;;;;;5052611;28;20033;-49
2021/04/24 05:48:37;;;;;;;6.00;2.30;;;14.00;66.40;;;;;;5051384;28;20063;-55
2021/04/24 05:51:03;;;;;;;4.93;3.00;;;14.40;64.80;;;;;;5052371;28;20056;-51
2021/04/24 05:53:29;;;;;;;7.03;2.50;;;14.70;64.10;;;;;;5052621;28;20056;-49
2021/04/24 05:55:54;;;;;;;5.22;3.13;;;15.20;63.20;;;;;;5050833;28;20366;-49
2021/04/24 05:58:20;;;;;;;6.88;3.08;;;15.60;58.20;;;;;;5052432;28;20051;-51
2021/04/24 06:00:45;;;;;;;4.78;2.45;;;15.80;61.10;;;;;;5052290;28;20541;-49
2021/04/24 06:03:11;;;;;;;8.45;3.30;;;16.00;60.70;;;;;;5052088;28;20036;-49
2021/04/24 06:05:37;;;;;;;6.15;2.60;;;16.20;60.70;;;;;;5050989;28;20468;-51
2021/04/24 06:08:03;;;;;;;3.75;2.53;;;16.40;60.00;;;;;;5051265;28;20021;-54
2021/04/24 06:10:28;;;;;;;6.85;3.13;;;17.00;59.10;;;;;;5052182;28;20017;-52
2021/04/24 06:12:54;;;;;;;5.10;3.20;;;17.60;57.70;;;;;;5052172;28;20104;-51
2021/04/24 06:15:20;;;;;;;4.47;2.65;;;18.10;56.70;;;;;;5051999;28;20112;-49
2021/04/24 06:17:47;;;;;;;4.50;3.25;;;18.80;55.90;;;;;;5051982;28;20013;-51
2021/04/24 06:20:13;;;;;;;6.88;3.10;;;19.60;54.20;;;;;;5050827;28;20067;-55
2021/04/24 06:22:39;;;;;;;6.85;3.00;;;20.20;53.20;;;;;;5051843;28;20033;-46
2021/04/24 06:25:09;;;;;;;5.25;3.30;;;20.70;52.40;;;;;;5051862;28;20061;-50
2021/04/24 06:27:35;;;;;;;6.93;4.00;;;21.30;51.50;;;;;;5055433;28;20111;-50
2021/04/24 06:30:01;;;;;;;4.55;3.17;;;21.40;50.50;;;;;;5054768;28;20113;-50
2021/04/24 06:32:26;;;;;;;4.63;3.42;;;21.70;50.50;;;;;;5051727;28;20419;-49
2021/04/24 06:34:52;;;;;;;5.32;3.75;;;22.20;50.20;;;;;;5050402;28;20032;-53
2021/04/24 06:37:18;;;;;;;8.15;3.58;;;22.70;49.70;;;;;;5051532;28;20159;-52
2021/04/24 06:39:44;;;;;;;7.63;4.22;;;23.00;48.50;;;;;;5045456;28;20041;-44
2021/04/24 06:42:09;;;;;;;6.50;3.60;;;22.70;47.30;;;;;;5050560;28;20029;-43
2021/04/24 06:44:35;;;;;;;5.03;3.60;;;23.10;47.10;;;;;;5051325;28;20480;-44
2021/04/24 06:47:03;;;;;;;5.97;3.35;;;23.50;46.70;;;;;;5051068;28;20029;-42
2021/04/24 06:49:29;;;;;;;4.68;4.00;;;23.80;46.20;;;;;;5050084;28;20020;-46
2021/04/24 06:51:55;;;;;;;5.53;3.67;;;24.10;45.70;;;;;;5051151;28;20036;-44
2021/04/24 06:54:20;;;;;;;5.18;2.70;;;24.40;45.50;;;;;;5049176;28;20029;-44
2021/04/24 06:56:46;;;;;;;6.30;3.40;;;24.60;45.00;;;;;;5050297;28;20103;-44
2021/04/24 06:59:11;;;;;;;5.93;3.33;;;24.90;44.70;;;;;;5051142;28;20028;-45
2021/04/24 07:01:37;;;;;;;4.95;2.88;;;25.30;44.20;;;;;;5051004;28;20025;-48
2021/04/24 07:04:02;;;;;;;5.13;2.85;;;25.40;43.40;;;;;;5050055;28;20380;-46
2021/04/24 07:06:28;;;;;;;4.32;3.15;;;25.80;43.40;;;;;;5050960;28;20032;-42
2021/04/24 07:08:54;;;;;;;6.10;4.03;;;26.20;41.60;;;;;;5051012;28;20025;-46
2021/04/24 07:11:20;;;;;;;6.22;3.25;;;26.10;41.40;;;;;;5050918;28;20025;-44
2021/04/24 07:13:46;;;;;;;5.63;3.60;;;26.20;41.40;;;;;;5051081;28;20029;-45
2021/04/24 07:16:11;;;;;;;5.38;4.10;;;26.10;41.30;;;;;;5050730;28;20503;-46
2021/04/24 07:18:39;;;;;;;3.72;2.90;;;26.40;41.00;;;;;;5049761;28;20021;-45
2021/04/24 07:21:05;;;;;;;4.15;2.97;;;26.70;40.50;;;;;;5050904;28;20029;-44
2021/04/24 07:23:32;;;;;;;3.03;2.58;;;26.80;40.20;;;;;;5050999;28;20047;-44
2021/04/24 07:25:58;;;;;;;6.30;3.45;;;26.90;39.80;;;;;;5050786;28;20028;-47
2021/04/24 07:28:24;;;;;;;5.45;2.78;;;27.00;39.00;;;;;;5058530;28;20120;-44
2021/04/24 07:30:49;;;;;;;3.47;2.75;;;27.30;39.20;;;;;;5050879;28;20599;-43
2021/04/24 07:33:15;;;;;;;4.03;2.30;;;27.80;39.10;;;;;;5050476;28;20017;-43
2021/04/24 07:35:40;;;;;;;4.60;2.80;;;28.20;38.50;;;;;;5049647;28;20071;-45
2021/04/24 07:38:06;;;;;;;4.43;3.17;;;28.00;38.20;;;;;;5050264;28;20404;-44
2021/04/24 07:40:31;;;;;;;2.97;2.67;;;28.00;38.20;;;;;;5050801;28;20036;-46
2021/04/24 07:42:57;;;;;;;3.15;2.78;;;28.30;38.10;;;;;;5050332;28;20084;-47
2021/04/24 07:45:22;;;;;;;3.47;2.45;;;28.70;37.70;;;;;;5050706;28;20037;-48
2021/04/24 07:47:48;;;;;;;5.15;2.55;;;28.50;37.50;;;;;;5050450;28;20041;-43
2021/04/24 07:50:18;;;;;;;6.20;3.78;;;28.20;37.30;;;;;;5049638;28;20041;-43
2021/04/24 07:52:44;;;;;;;4.22;3.10;;;27.20;37.70;;;;;;5050302;28;20480;-44
2021/04/24 07:55:11;;;;;;;4.95;3.10;;;26.10;38.00;;;;;;5050527;28;20029;-43
2021/04/24 07:57:36;;;;;;;3.30;2.28;;;25.90;38.50;;;;;;5050415;28;20551;-44
2021/04/24 08:00:07;;;;;;;5.43;3.20;;;25.50;38.30;;;;;;5050426;28;20037;-44
2021/04/24 08:02:33;;;;;;;5.90;2.65;;;25.80;38.20;;;;;;5050341;28;20018;-43
2021/04/24 08:04:59;;;;;;;4.47;2.90;;;26.10;38.10;;;;;;5048229;28;20046;-44
2021/04/24 08:07:24;;;;;;;4.93;2.78;;;25.70;37.50;;;;;;5044845;28;20070;-44
2021/04/24 08:09:50;;;;;;;5.07;2.80;;;26.10;37.60;;;;;;5049588;28;20079;-43
2021/04/24 08:12:15;;;;;;;4.20;2.80;;;25.60;37.50;;;;;;5050147;28;20472;-46
2021/04/24 08:14:41;;;;;;;2.30;2.05;;;25.80;37.40;;;;;;5049997;28;20021;-43
2021/04/24 08:17:07;;;;;;;4.03;2.60;;;26.00;37.10;;;;;;5049942;28;20025;-44
2021/04/24 08:19:32;;;;;;;3.67;2.50;;;26.10;36.50;;;;;;5049457;28;20048;-42
2021/04/24 08:21:59;;;;;;;3.78;2.05;;;25.70;36.60;;;;;;5049929;28;20036;-45
2021/04/24 08:24:24;;;;;;;3.40;2.22;;;25.60;36.60;;;;;;5050215;28;20464;-50
2021/04/24 08:26:50;;;;;;;4.03;2.10;;;25.70;36.70;;;;;;5050079;28;20109;-47
2021/04/24 08:29:16;;;;;;;4.70;2.28;;;25.90;36.60;;;;;;5057537;28;20503;-45
2021/04/24 08:31:43;;;;;;;4.25;2.50;;;25.80;36.40;;;;;;5053007;28;20029;-42
2021/04/24 08:34:09;;;;;;;4.45;2.28;;;25.90;36.40;;;;;;5052828;28;20165;-42
2021/04/24 08:36:35;;;;;;;4.15;2.28;;;26.10;36.20;;;;;;5052691;28;20021;-43
2021/04/24 08:39:01;;;;;;;4.30;2.63;;;26.00;35.90;;;;;;5050977;28;20056;-44
2021/04/24 08:41:27;;;;;;;3.20;1.98;;;25.70;36.30;;;;;;5053293;28;20479;-44
2021/04/24 08:43:56;;;;;;;4.20;2.30;;;25.80;36.40;;;;;;5053417;28;20060;-44
2021/04/24 08:46:23;;;;;;;2.83;2.05;;;25.90;36.20;;;;;;5053508;28;20372;-50
2021/04/24 08:48:49;;;;;;;3.88;2.50;;;25.80;36.10;;;;;;5052474;28;20029;-47
2021/04/24 08:51:15;;;;;;;2.67;1.92;;;25.20;36.10;;;;;;5053640;28;20486;-48
2021/04/24 08:53:41;;;;;;;4.07;2.47;;;24.90;36.20;;;;;;5053317;28;20060;-47
2021/04/24 08:56:06;;;;;;;3.17;1.92;;;25.50;36.00;;;;;;5053254;28;20068;-45
2021/04/24 08:58:32;;;;;;;4.28;2.30;;;26.10;35.60;;;;;;5053278;28;20032;-48
2021/04/24 09:00:57;;;;;;;2.83;2.10;;;25.00;35.50;;;;;;5053296;28;20028;-45
2021/04/24 09:03:23;;;;;;;5.03;2.47;;;24.90;35.90;;;;;;5052366;28;20068;-47
2021/04/24 09:05:50;;;;;;;4.70;2.20;;;24.20;35.70;;;;;;5053267;28;20025;-46
2021/04/24 09:08:29;;;;;;;3.33;2.13;;;24.70;35.60;;;;;;5052727;28;20029;-43
2021/04/24 09:10:55;;;;;;;4.20;2.80;;;24.70;34.90;;;;;;5053171;28;20069;-44
2021/04/24 09:13:23;;;;;;;4.35;2.30;;;25.40;34.90;;;;;;5052844;28;20025;-46
2021/04/24 09:15:50;;;;;;;2.95;2.22;;;25.80;34.50;;;;;;5053334;28;20073;-47
2021/04/24 09:18:16;;;;;;;3.92;2.40;;;25.70;34.30;;;;;;5051416;28;20024;-47
2021/04/24 09:20:46;;;;;;;5.10;2.17;;;25.00;34.70;;;;;;5052854;28;20017;-43
2021/04/24 09:23:27;;;;;;;5.53;2.40;;;23.90;35.00;;;;;;5053647;28;20484;-42
2021/04/24 09:26:09;;;;;;;3.30;2.00;;;22.90;36.10;;;;;;5053970;28;20052;-45
2021/04/24 09:28:41;;;;;;;2.78;1.83;;;22.70;36.10;;;;;;5061679;28;20075;-44
2021/04/24 09:31:16;;;;;;;6.18;2.17;;;22.30;36.40;;;;;;5052516;28;20447;-42
2021/04/24 09:33:47;;;;;;;2.70;1.92;;;21.70;36.50;;;;;;5052830;28;20502;-51
2021/04/24 09:36:14;;;;;;;3.88;2.17;;;20.70;37.50;;;;;;5053358;28;20112;-44
2021/04/24 09:38:48;;;;;;;2.83;2.00;;;19.90;38.30;;;;;;5053519;28;20077;-42
2021/04/24 09:41:33;;;;;;;3.08;1.90;;;19.30;38.90;;;;;;5053437;28;20017;-44
2021/04/24 09:44:08;;;;;;;3.90;1.92;;;18.70;39.80;;;;;;5053613;28;20447;-43
2021/04/24 09:46:46;;;;;;;2.92;1.80;;;18.20;40.40;;;;;;5053218;28;20029;-44
2021/04/24 09:49:31;;;;;;;3.95;1.90;;;17.80;40.80;;;;;;5052249;28;20021;-47
2021/04/24 09:51:59;;;;;;;3.90;2.60;;;17.30;41.90;;;;;;5053507;28;20480;-42
2021/04/24 09:54:35;;;;;;;2.42;1.80;;;16.80;41.80;;;;;;5052902;28;20063;-48
2021/04/24 09:57:08;;;;;;;3.03;2.13;;;16.40;42.60;;;;;;5053190;28;20396;-43
2021/04/24 10:00:00;;;;;;;5.75;1.80;;;16.10;43.90;;;;;;5053274;28;20478;-45
2021/04/24 10:02:34;;;;;;;3.20;2.03;;;16.00;44.30;;;;;;5053365;28;20045;-41
2021/04/24 10:05:09;;;;;;;4.18;2.00;;;16.00;43.90;;;;;;5052371;28;20472;-43
2021/04/24 10:07:36;;;;;;;2.40;1.85;;;16.40;43.30;;;;;;5053042;28;20033;-44
2021/04/24 10:10:04;;;;;;;3.45;2.22;;;16.70;43.10;;;;;;5053000;28;20025;-42
2021/04/24 10:12:30;;;;;;;3.00;1.98;;;16.80;43.10;;;;;;5052984;28;20089;-43
2021/04/24 10:14:56;;;;;;;4.40;2.00;;;16.80;43.00;;;;;;5052937;28;20147;-46
2021/04/24 10:17:21;;;;;;;2.70;1.70;;;16.70;43.20;;;;;;5052796;28;20104;-44
2021/04/24 10:19:49;;;;;;;3.80;1.77;;;16.50;43.20;;;;;;5051954;28;20143;-44
2021/04/24 10:22:16;;;;;;;2.15;1.52;;;16.50;43.30;;;;;;5052830;28;20376;-43
2021/04/24 10:24:43;;;;;;;4.22;1.73;;;16.40;43.70;;;;;;5052789;28;20033;-43
2021/04/24 10:27:11;;;;;;;4.05;1.67;;;16.10;44.50;;;;;;5053835;28;20396;-46
2021/04/24 10:29:37;;;;;;;4.88;2.17;;;15.90;44.50;;;;;;5059249;28;20036;-43
2021/04/24 10:32:03;;;;;;;2.20;1.58;;;15.70;44.60;;;;;;5039701;28;20488;-42
2021/04/24 10:34:29;;;;;;;3.67;1.83;;;15.60;44.70;;;;;;5051247;28;20039;-42
2021/04/24 10:36:55;;;;;;;2.50;1.55;;;15.70;44.70;;;;;;5052679;28;20029;-45
2021/04/24 10:39:24;;;;;;;3.15;2.00;;;15.70;44.90;;;;;;5050909;28;20041;-45
2021/04/24 10:42:02;;;;;;;3.13;1.75;;;15.60;45.60;;;;;;5052474;28;20411;-43
2021/04/24 10:45:08;;;;;;;1.75;1.40;;;15.60;45.50;;;;;;5052150;28;20029;-42
2021/04/24 10:47:43;;;;;;;4.32;1.92;;;15.80;46.20;;;;;;4990746;28;20389;-42
2021/04/24 10:50:12;;;;;;;3.30;1.77;;;15.90;45.30;;;;;;5044531;28;20040;-42
2021/04/24 10:52:39;;;;;;;5.25;2.90;;;15.80;45.40;;;;;;5051758;28;20021;-43
2021/04/24 10:55:20;;;;;;;3.70;2.15;;;15.80;45.20;;;;;;5051935;28;20039;-44
2021/04/24 10:57:55;;;;;;;4.55;2.60;;;15.50;46.10;;;;;;5052121;28;20050;-44
2021/04/24 11:00:23;;;;;;;3.63;2.08;;;15.30;46.60;;;;;;5051954;28;20086;-43
2021/04/24 11:02:53;;;;;;;4.63;1.98;;;15.40;46.40;;;;;;5052104;28;20028;-44
2021/04/24 11:05:27;;;;;;;4.10;2.05;;;15.40;46.30;;;;;;5050887;28;20052;-45
2021/04/24 11:08:08;;;;;;;4.30;1.98;;;15.50;46.20;;;;;;5051997;28;20096;-43
2021/04/24 11:10:57;;;;;;;6.22;2.15;;;15.60;46.40;;;;;;5051651;28;20062;-43
2021/04/24 11:13:24;;;;;;;3.17;1.70;;;15.50;46.30;;;;;;5051806;28;20043;-43
2021/04/24 11:15:50;;;;;;;2.70;1.85;;;15.70;46.00;;;;;;5051858;28;20460;-42
2021/04/24 11:18:16;;;;;;;4.07;2.03;;;15.90;45.90;;;;;;5050821;28;20029;-45
2021/04/24 11:20:54;;;;;;;5.35;2.15;;;16.10;45.70;;;;;;5051806;28;20045;-42
2021/04/24 11:23:40;;;;;;;4.78;1.95;;;16.30;45.40;;;;;;5051667;28;20025;-42
2021/04/24 11:26:08;;;;;;;3.93;2.23;;;16.40;45.90;;;;;;5051689;28;20061;-44
2021/04/24 11:28:53;;;;;;;4.95;2.00;;;16.50;45.00;;;;;;5059959;28;20635;-43
2021/04/24 11:31:39;;;;;;;4.32;1.90;;;16.40;44.70;;;;;;5049105;28;20040;-44
2021/04/24 11:34:22;;;;;;;3.55;1.98;;;16.40;44.70;;;;;;5050461;28;20037;-43
2021/04/24 11:36:48;;;;;;;3.75;2.15;;;16.40;45.10;;;;;;5051610;28;20503;-46
2021/04/24 11:39:14;;;;;;;3.65;1.95;;;16.40;45.00;;;;;;5051060;28;20048;-46
2021/04/24 11:41:45;;;;;;;4.75;1.83;;;16.50;45.10;;;;;;5051311;28;20484;-42
2021/04/24 11:44:17;;;;;;;4.05;1.65;;;16.70;45.00;;;;;;5051425;28;20029;-42
2021/04/24 11:46:44;;;;;;;3.20;1.70;;;16.90;44.60;;;;;;5050163;28;20021;-41
2021/04/24 11:49:17;;;;;;;3.25;1.70;;;17.00;44.10;;;;;;5050491;28;20032;-42
2021/04/24 11:51:53;;;;;;;3.00;1.65;;;17.00;43.20;;;;;;5042646;28;20025;-43
2021/04/24 11:54:42;;;;;;;2.70;1.70;;;16.90;43.50;;;;;;5051115;28;20431;-41
2021/04/24 11:57:10;;;;;;;2.53;1.48;;;16.70;43.30;;;;;;5051450;28;20060;-42
2021/04/24 11:59:38;;;;;;;2.55;1.60;;;16.70;43.80;;;;;;5051081;28;20067;-41
2021/04/24 12:02:16;;;;;;;2.58;1.33;;;16.60;44.00;;;;;;5051325;28;20029;-43
2021/04/24 12:04:43;;;;;;;3.67;1.80;;;16.40;44.00;;;;;;5050420;28;20533;-41
2021/04/24 12:07:15;;;;;;;3.22;1.55;;;16.10;44.30;;;;;;5055476;28;20043;-44
2021/04/24 12:09:49;;;;;;;5.80;1.98;;;15.90;44.60;;;;;;5055172;28;20033;-41
2021/04/24 12:14:45;;;;;;;3.58;2.15;;;15.40;45.20;;;;;;5039225;28;20048;-44
2021/04/24 12:17:14;;;;;;;6.18;1.90;;;15.30;45.40;;;;;;5055276;28;20033;-44
2021/04/24 12:19:42;;;;;;;4.60;1.60;;;15.20;45.60;;;;;;5053865;28;20033;-44
2021/04/24 12:22:22;;;;;;;3.92;2.17;;;15.00;45.70;;;;;;5055006;28;20036;-43
2021/04/24 12:25:04;;;;;;;3.15;1.90;;;14.80;46.30;;;;;;5055061;28;20049;-44
2021/04/24 12:27:33;;;;;;;3.20;1.98;;;14.60;46.50;;;;;;5054625;28;20047;-43
2021/04/24 12:30:00;;;;;;;3.13;1.77;;;14.50;46.50;;;;;;5101707;22;20496;-43
2021/04/24 12:32:34;;;;;;;3.20;1.73;;;14.50;46.50;;;;;;5064758;28;20023;-43
2021/04/24 12:35:07;;;;;;;3.88;1.70;;;14.40;47.20;;;;;;5073684;28;20032;-45
2021/04/24 12:37:33;;;;;;;3.05;1.70;;;14.50;46.50;;;;;;5074719;28;20032;-46
2021/04/24 12:40:14;;;;;;;6.00;2.05;;;14.70;46.30;;;;;;5074657;28;20063;-45
2021/04/24 12:42:40;;;;;;;6.68;2.03;;;14.90;46.30;;;;;;5074643;28;20100;-46
2021/04/24 12:45:11;;;;;;;3.00;1.75;;;15.10;45.80;;;;;;5075010;28;20028;-42
2021/04/24 12:47:39;;;;;;;3.17;1.70;;;15.30;45.70;;;;;;5074456;28;20028;-41
2021/04/24 12:50:12;;;;;;;7.53;2.45;;;15.30;45.60;;;;;;5073393;28;20032;-42
2021/04/24 12:53:01;;;;;;;2.70;2.10;;;15.10;45.20;;;;;;5069931;28;20082;-41
2021/04/24 12:55:38;;;;;;;4.53;1.67;;;14.80;45.70;;;;;;5072316;28;20487;-43
2021/04/24 12:58:06;;;;;;;2.85;1.48;;;14.60;46.20;;;;;;5074358;28;20059;-44